sensor_id;sensor_type;location;lat;lon;timestamp;pressure;altitude;pressure_sealevel;temperature;humidity
59829;BME280;45708;51.848;107.620;2023-04-20T00:04:28;95674.97;;;0.27;29.26
59829;BME280;45708;51.848;107.620;2023-04-20T00:09:29;95670.72;;;0.64;29.10
59829;BME280;45708;51.848;107.620;2023-04-20T00:14:30;95675.63;;;0.67;28.77
59829;BME280;45708;51.848;107.620;2023-04-20T00:19:30;95683.00;;;0.34;27.62
59829;BME280;45708;51.848;107.620;2023-04-20T00:24:31;95692.34;;;0.64;27.62
59829;BME280;45708;51.848;107.620;2023-04-20T00:29:32;95692.59;;;1.61;27.34
59829;BME280;45708;51.848;107.620;2023-04-20T00:34:33;95693.53;;;1.96;26.34
59829;BME280;45708;51.848;107.620;2023-04-20T00:39:34;95675.63;;;1.57;26.41
59829;BME280;45708;51.848;107.620;2023-04-20T00:44:35;95689.56;;;2.95;25.74
59829;BME280;45708;51.848;107.620;2023-04-20T00:49:36;95692.47;;;2.84;25.31
59829;BME280;45708;51.848;107.620;2023-04-20T00:54:37;95707.75;;;2.45;24.79
59829;BME280;45708;51.848;107.620;2023-04-20T00:59:39;95720.28;;;1.62;26.14
59829;BME280;45708;51.848;107.620;2023-04-20T01:04:40;95718.31;;;3.03;25.01
59829;BME280;45708;51.848;107.620;2023-04-20T01:09:41;95712.00;;;2.80;24.42
59829;BME280;45708;51.848;107.620;2023-04-20T01:14:42;95717.75;;;3.26;24.79
59829;BME280;45708;51.848;107.620;2023-04-20T01:19:43;95715.56;;;3.80;23.77
59829;BME280;45708;51.848;107.620;2023-04-20T01:24:43;95709.34;;;5.48;23.06
59829;BME280;45708;51.848;107.620;2023-04-20T01:29:45;95709.50;;;5.16;23.24
59829;BME280;45708;51.848;107.620;2023-04-20T01:34:45;95711.50;;;5.06;23.42
59829;BME280;45708;51.848;107.620;2023-04-20T01:39:46;95718.03;;;4.46;23.08
59829;BME280;45708;51.848;107.620;2023-04-20T01:44:47;95664.31;;;4.83;22.86
59829;BME280;45708;51.848;107.620;2023-04-20T01:49:48;95706.34;;;4.81;22.36
59829;BME280;45708;51.848;107.620;2023-04-20T01:54:48;95714.84;;;4.83;22.21
59829;BME280;45708;51.848;107.620;2023-04-20T01:59:49;95701.19;;;4.49;22.51
59829;BME280;45708;51.848;107.620;2023-04-20T02:04:50;95692.50;;;4.40;21.81
59829;BME280;45708;51.848;107.620;2023-04-20T02:09:51;95705.59;;;3.75;21.99
59829;BME280;45708;51.848;107.620;2023-04-20T02:14:52;95716.69;;;3.02;22.76
59829;BME280;45708;51.848;107.620;2023-04-20T02:19:52;95701.38;;;3.16;21.96
59829;BME280;45708;51.848;107.620;2023-04-20T02:24:53;95700.22;;;3.10;22.27
59829;BME280;45708;51.848;107.620;2023-04-20T02:29:54;95666.22;;;3.52;22.30
59829;BME280;45708;51.848;107.620;2023-04-20T02:34:56;95687.38;;;2.49;23.11
59829;BME280;45708;51.848;107.620;2023-04-20T02:39:57;95696.50;;;0.47;24.96
59829;BME280;45708;51.848;107.620;2023-04-20T02:44:57;95705.03;;;-1.05;26.41
59829;BME280;45708;51.848;107.620;2023-04-20T02:49:58;95689.03;;;-1.60;26.06
59829;BME280;45708;51.848;107.620;2023-04-20T02:54:59;95715.31;;;-2.06;27.20
59829;BME280;45708;51.848;107.620;2023-04-20T03:00:00;95705.97;;;-2.39;27.50
59829;BME280;45708;51.848;107.620;2023-04-20T03:05:01;95709.88;;;-2.24;28.01
59829;BME280;45708;51.848;107.620;2023-04-20T03:10:03;95696.81;;;-2.43;27.84
59829;BME280;45708;51.848;107.620;2023-04-20T03:15:04;95697.75;;;-2.45;27.68
59829;BME280;45708;51.848;107.620;2023-04-20T03:20:05;95700.66;;;-2.59;27.67
59829;BME280;45708;51.848;107.620;2023-04-20T03:25:07;95694.31;;;-2.66;28.30
59829;BME280;45708;51.848;107.620;2023-04-20T03:30:08;95695.22;;;-2.56;27.73
59829;BME280;45708;51.848;107.620;2023-04-20T03:35:09;95684.94;;;-2.46;27.87
59829;BME280;45708;51.848;107.620;2023-04-20T03:40:10;95687.00;;;-2.61;28.93
59829;BME280;45708;51.848;107.620;2023-04-20T03:45:12;95679.97;;;-2.59;28.85
59829;BME280;45708;51.848;107.620;2023-04-20T03:50:12;95671.88;;;-2.45;28.78
59829;BME280;45708;51.848;107.620;2023-04-20T03:55:13;95675.41;;;-2.04;28.38
59829;BME280;45708;51.848;107.620;2023-04-20T04:00:14;95669.63;;;-2.38;28.16
59829;BME280;45708;51.848;107.620;2023-04-20T04:05:15;95648.16;;;-2.08;28.18
59829;BME280;45708;51.848;107.620;2023-04-20T04:10:17;95649.53;;;-2.04;26.99
59829;BME280;45708;51.848;107.620;2023-04-20T04:15:18;95646.66;;;-2.31;26.39
59829;BME280;45708;51.848;107.620;2023-04-20T04:20:18;95652.69;;;-2.21;26.25
59829;BME280;45708;51.848;107.620;2023-04-20T04:25:19;95639.44;;;-2.07;27.27
59829;BME280;45708;51.848;107.620;2023-04-20T04:30:20;95640.31;;;-1.97;26.80
59829;BME280;45708;51.848;107.620;2023-04-20T04:35:21;95642.59;;;-2.24;26.99
59829;BME280;45708;51.848;107.620;2023-04-20T04:40:22;95619.19;;;-2.23;26.48
59829;BME280;45708;51.848;107.620;2023-04-20T04:45:22;95607.50;;;-1.96;26.43
59829;BME280;45708;51.848;107.620;2023-04-20T04:50:23;95609.56;;;-1.80;25.80
59829;BME280;45708;51.848;107.620;2023-04-20T04:55:24;95601.56;;;-1.77;25.54
59829;BME280;45708;51.848;107.620;2023-04-20T05:00:25;95613.13;;;-1.81;26.02
59829;BME280;45708;51.848;107.620;2023-04-20T05:05:26;95594.63;;;-1.67;26.15
59829;BME280;45708;51.848;107.620;2023-04-20T05:10:27;95602.88;;;-1.52;25.87
59829;BME280;45708;51.848;107.620;2023-04-20T05:15:27;95599.47;;;-1.53;24.97
59829;BME280;45708;51.848;107.620;2023-04-20T05:20:28;95598.88;;;-1.66;25.16
59829;BME280;45708;51.848;107.620;2023-04-20T05:25:30;95578.25;;;-1.77;25.15
59829;BME280;45708;51.848;107.620;2023-04-20T05:30:31;95582.69;;;-1.49;25.56
59829;BME280;45708;51.848;107.620;2023-04-20T05:35:32;95592.00;;;-1.37;25.54
59829;BME280;45708;51.848;107.620;2023-04-20T05:40:33;95590.25;;;-1.17;25.24
59829;BME280;45708;51.848;107.620;2023-04-20T05:45:34;95576.41;;;-1.46;25.36
59829;BME280;45708;51.848;107.620;2023-04-20T05:50:34;95528.16;;;-1.57;25.16
59829;BME280;45708;51.848;107.620;2023-04-20T05:55:35;95577.13;;;-1.35;23.74
59829;BME280;45708;51.848;107.620;2023-04-20T06:00:36;95561.59;;;-1.35;24.70
59829;BME280;45708;51.848;107.620;2023-04-20T06:05:37;95573.59;;;-1.34;25.11
59829;BME280;45708;51.848;107.620;2023-04-20T06:10:38;95527.84;;;-1.73;24.99
59829;BME280;45708;51.848;107.620;2023-04-20T06:15:39;95570.97;;;-1.53;25.20
59829;BME280;45708;51.848;107.620;2023-04-20T06:20:42;95554.59;;;-1.54;25.39
59829;BME280;45708;51.848;107.620;2023-04-20T06:25:43;95530.56;;;-1.65;24.94
59829;BME280;45708;51.848;107.620;2023-04-20T06:30:43;95567.19;;;-1.30;24.79
59829;BME280;45708;51.848;107.620;2023-04-20T06:35:44;95555.59;;;-1.16;24.46
59829;BME280;45708;51.848;107.620;2023-04-20T06:40:45;95552.75;;;-1.13;24.52
59829;BME280;45708;51.848;107.620;2023-04-20T06:45:46;95553.28;;;-1.19;25.10
59829;BME280;45708;51.848;107.620;2023-04-20T06:50:50;95542.91;;;-1.29;24.66
59829;BME280;45708;51.848;107.620;2023-04-20T06:55:54;95561.19;;;-1.30;25.63
59829;BME280;45708;51.848;107.620;2023-04-20T07:00:55;95562.81;;;-1.29;25.05
59829;BME280;45708;51.848;107.620;2023-04-20T07:05:56;95535.47;;;-1.62;24.84
59829;BME280;45708;51.848;107.620;2023-04-20T07:10:57;95539.50;;;-1.39;24.66
59829;BME280;45708;51.848;107.620;2023-04-20T07:15:58;95535.25;;;-1.49;24.14
59829;BME280;45708;51.848;107.620;2023-04-20T07:20:59;95544.94;;;-1.32;25.37
59829;BME280;45708;51.848;107.620;2023-04-20T07:26:00;95525.84;;;-1.02;23.92
59829;BME280;45708;51.848;107.620;2023-04-20T07:31:00;95522.28;;;-1.01;24.84
59829;BME280;45708;51.848;107.620;2023-04-20T07:36:01;95518.06;;;-1.02;24.78
59829;BME280;45708;51.848;107.620;2023-04-20T07:41:02;95516.16;;;-1.00;24.75
59829;BME280;45708;51.848;107.620;2023-04-20T07:46:03;95503.88;;;-1.08;24.05
59829;BME280;45708;51.848;107.620;2023-04-20T07:51:04;95513.72;;;-1.11;25.05
59829;BME280;45708;51.848;107.620;2023-04-20T07:56:05;95510.44;;;-1.13;25.26
59829;BME280;45708;51.848;107.620;2023-04-20T08:01:06;95499.09;;;-1.03;24.81
59829;BME280;45708;51.848;107.620;2023-04-20T08:06:08;95501.53;;;-1.01;25.51
59829;BME280;45708;51.848;107.620;2023-04-20T08:11:09;95513.44;;;-1.08;25.70
59829;BME280;45708;51.848;107.620;2023-04-20T08:16:10;95489.16;;;-0.98;25.41
59829;BME280;45708;51.848;107.620;2023-04-20T08:21:11;95484.09;;;-0.99;24.94
59829;BME280;45708;51.848;107.620;2023-04-20T08:26:14;95486.94;;;-1.02;25.13
59829;BME280;45708;51.848;107.620;2023-04-20T08:31:15;95480.94;;;-0.93;25.37
59829;BME280;45708;51.848;107.620;2023-04-20T08:36:16;95484.63;;;-1.05;25.03
59829;BME280;45708;51.848;107.620;2023-04-20T08:41:17;95474.44;;;-1.16;25.45
59829;BME280;45708;51.848;107.620;2023-04-20T08:46:18;95469.53;;;-1.19;25.77
59829;BME280;45708;51.848;107.620;2023-04-20T08:51:20;95467.59;;;-1.17;25.39
59829;BME280;45708;51.848;107.620;2023-04-20T08:56:42;95462.00;;;-1.13;26.59
59829;BME280;45708;51.848;107.620;2023-04-20T09:01:43;95457.91;;;-1.15;26.65
59829;BME280;45708;51.848;107.620;2023-04-20T09:06:45;95467.06;;;-1.11;27.01
59829;BME280;45708;51.848;107.620;2023-04-20T09:11:47;95451.75;;;-1.05;26.00
59829;BME280;45708;51.848;107.620;2023-04-20T09:16:49;95452.19;;;-1.19;26.61
59829;BME280;45708;51.848;107.620;2023-04-20T09:21:55;95467.34;;;-1.14;26.87
59829;BME280;45708;51.848;107.620;2023-04-20T09:26:56;95451.22;;;-1.28;26.14
59829;BME280;45708;51.848;107.620;2023-04-20T09:31:57;95457.91;;;-1.15;27.29
59829;BME280;45708;51.848;107.620;2023-04-20T09:36:57;95440.88;;;-1.37;26.18
59829;BME280;45708;51.848;107.620;2023-04-20T09:42:03;95458.06;;;-1.36;26.81
59829;BME280;45708;51.848;107.620;2023-04-20T09:47:04;95461.88;;;-1.50;26.67
59829;BME280;45708;51.848;107.620;2023-04-20T09:52:05;95464.19;;;-1.47;26.97
59829;BME280;45708;51.848;107.620;2023-04-20T09:57:06;95467.19;;;-1.42;27.15
59829;BME280;45708;51.848;107.620;2023-04-20T10:02:09;95473.88;;;-1.49;26.25
59829;BME280;45708;51.848;107.620;2023-04-20T10:07:25;95480.53;;;-1.66;26.45
59829;BME280;45708;51.848;107.620;2023-04-20T10:12:27;95464.03;;;-1.74;26.55
59829;BME280;45708;51.848;107.620;2023-04-20T10:17:30;95475.22;;;-1.64;27.69
59829;BME280;45708;51.848;107.620;2023-04-20T10:22:31;95466.25;;;-1.60;27.48
59829;BME280;45708;51.848;107.620;2023-04-20T10:27:32;95480.41;;;-1.64;27.03
59829;BME280;45708;51.848;107.620;2023-04-20T10:32:33;95427.47;;;-2.10;27.29
59829;BME280;45708;51.848;107.620;2023-04-20T10:37:34;95475.63;;;-1.78;27.35
59829;BME280;45708;51.848;107.620;2023-04-20T10:42:44;95480.38;;;-1.84;27.18
59829;BME280;45708;51.848;107.620;2023-04-20T10:47:45;95476.28;;;-1.96;27.52
59829;BME280;45708;51.848;107.620;2023-04-20T10:52:46;95480.31;;;-2.03;27.66
59829;BME280;45708;51.848;107.620;2023-04-20T10:57:48;95480.84;;;-2.09;27.61
59829;BME280;45708;51.848;107.620;2023-04-20T11:02:50;95483.31;;;-2.17;28.13
59829;BME280;45708;51.848;107.620;2023-04-20T11:07:56;95482.44;;;-2.27;28.31
59829;BME280;45708;51.848;107.620;2023-04-20T11:12:59;95487.44;;;-2.35;28.41
59829;BME280;45708;51.848;107.620;2023-04-20T11:18:10;95492.53;;;-2.55;28.86
59829;BME280;45708;51.848;107.620;2023-04-20T11:23:11;95493.13;;;-2.72;29.30
59829;BME280;45708;51.848;107.620;2023-04-20T11:28:12;95502.84;;;-2.85;28.84
59829;BME280;45708;51.848;107.620;2023-04-20T11:33:13;95494.13;;;-3.05;29.63
59829;BME280;45708;51.848;107.620;2023-04-20T11:38:13;95514.50;;;-3.12;29.45
59829;BME280;45708;51.848;107.620;2023-04-20T11:43:14;95513.16;;;-3.27;30.15
59829;BME280;45708;51.848;107.620;2023-04-20T11:48:15;95514.63;;;-3.45;30.50
59829;BME280;45708;51.848;107.620;2023-04-20T11:53:16;95507.53;;;-3.64;31.05
59829;BME280;45708;51.848;107.620;2023-04-20T11:58:17;95523.72;;;-3.62;31.54
59829;BME280;45708;51.848;107.620;2023-04-20T12:03:18;95523.06;;;-3.75;31.12
59829;BME280;45708;51.848;107.620;2023-04-20T12:08:18;95530.69;;;-3.85;31.72
59829;BME280;45708;51.848;107.620;2023-04-20T12:13:19;95532.63;;;-3.98;32.47
59829;BME280;45708;51.848;107.620;2023-04-20T12:18:20;95534.50;;;-4.22;32.77
59829;BME280;45708;51.848;107.620;2023-04-20T12:23:22;95552.31;;;-4.31;33.43
59829;BME280;45708;51.848;107.620;2023-04-20T12:28:23;95554.31;;;-4.45;34.00
59829;BME280;45708;51.848;107.620;2023-04-20T12:33:24;95560.59;;;-4.61;33.81
59829;BME280;45708;51.848;107.620;2023-04-20T12:38:24;95558.50;;;-4.67;33.18
59829;BME280;45708;51.848;107.620;2023-04-20T12:43:25;95568.00;;;-4.67;34.21
59829;BME280;45708;51.848;107.620;2023-04-20T12:48:26;95546.75;;;-4.82;33.63
59829;BME280;45708;51.848;107.620;2023-04-20T12:53:27;95579.31;;;-4.81;34.73
59829;BME280;45708;51.848;107.620;2023-04-20T12:58:28;95577.78;;;-4.95;33.98
59829;BME280;45708;51.848;107.620;2023-04-20T13:03:28;95587.78;;;-5.03;34.78
59829;BME280;45708;51.848;107.620;2023-04-20T13:08:29;95582.38;;;-5.11;34.96
59829;BME280;45708;51.848;107.620;2023-04-20T13:13:30;95595.16;;;-5.09;34.95
59829;BME280;45708;51.848;107.620;2023-04-20T13:18:32;95582.63;;;-5.14;34.18
59829;BME280;45708;51.848;107.620;2023-04-20T13:23:33;95578.13;;;-5.23;34.06
59829;BME280;45708;51.848;107.620;2023-04-20T13:28:34;95586.41;;;-5.31;34.58
59829;BME280;45708;51.848;107.620;2023-04-20T13:33:35;95598.78;;;-5.36;35.23
59829;BME280;45708;51.848;107.620;2023-04-20T13:38:35;95610.34;;;-5.41;35.62
59829;BME280;45708;51.848;107.620;2023-04-20T13:43:36;95614.28;;;-5.48;36.93
59829;BME280;45708;51.848;107.620;2023-04-20T13:48:37;95618.63;;;-5.62;37.67
59829;BME280;45708;51.848;107.620;2023-04-20T13:53:38;95611.56;;;-5.71;37.25
59829;BME280;45708;51.848;107.620;2023-04-20T13:58:39;95617.66;;;-5.72;37.83
59829;BME280;45708;51.848;107.620;2023-04-20T14:03:40;95608.09;;;-5.83;38.05
59829;BME280;45708;51.848;107.620;2023-04-20T14:08:41;95619.19;;;-5.93;39.42
59829;BME280;45708;51.848;107.620;2023-04-20T14:13:42;95600.84;;;-6.01;37.78
59829;BME280;45708;51.848;107.620;2023-04-20T14:18:43;95603.06;;;-5.84;37.72
59829;BME280;45708;51.848;107.620;2023-04-20T14:23:44;95604.91;;;-5.86;37.70
59829;BME280;45708;51.848;107.620;2023-04-20T14:28:45;95611.25;;;-5.90;37.63
59829;BME280;45708;51.848;107.620;2023-04-20T14:33:49;95599.31;;;-6.04;38.61
59829;BME280;45708;51.848;107.620;2023-04-20T14:38:49;95593.56;;;-6.07;38.39
59829;BME280;45708;51.848;107.620;2023-04-20T14:43:50;95592.66;;;-6.06;38.49
59829;BME280;45708;51.848;107.620;2023-04-20T14:48:51;95590.00;;;-6.18;39.30
59829;BME280;45708;51.848;107.620;2023-04-20T14:53:52;95606.34;;;-6.19;38.94
59829;BME280;45708;51.848;107.620;2023-04-20T14:58:53;95616.53;;;-6.55;39.22
59829;BME280;45708;51.848;107.620;2023-04-20T15:03:53;95607.56;;;-7.27;42.00
59829;BME280;45708;51.848;107.620;2023-04-20T15:08:54;95621.78;;;-7.63;44.24
59829;BME280;45708;51.848;107.620;2023-04-20T15:13:55;95609.03;;;-7.91;44.62
59829;BME280;45708;51.848;107.620;2023-04-20T15:18:56;95615.50;;;-7.72;42.94
59829;BME280;45708;51.848;107.620;2023-04-20T15:23:57;95626.56;;;-7.57;42.18
59829;BME280;45708;51.848;107.620;2023-04-20T15:28:57;95633.56;;;-7.73;44.88
59829;BME280;45708;51.848;107.620;2023-04-20T15:33:59;95639.38;;;-7.57;43.65
59829;BME280;45708;51.848;107.620;2023-04-20T15:39:00;95629.25;;;-7.46;42.84
59829;BME280;45708;51.848;107.620;2023-04-20T15:44:00;95602.56;;;-7.56;42.62
59829;BME280;45708;51.848;107.620;2023-04-20T15:49:01;95645.53;;;-7.32;43.46
59829;BME280;45708;51.848;107.620;2023-04-20T15:54:02;95656.38;;;-7.42;43.38
59829;BME280;45708;51.848;107.620;2023-04-20T15:59:03;95660.06;;;-7.46;43.74
59829;BME280;45708;51.848;107.620;2023-04-20T16:04:04;95660.78;;;-7.44;43.77
59829;BME280;45708;51.848;107.620;2023-04-20T16:09:05;95660.63;;;-7.55;44.68
59829;BME280;45708;51.848;107.620;2023-04-20T16:14:06;95678.78;;;-7.58;44.58
59829;BME280;45708;51.848;107.620;2023-04-20T16:19:06;95673.69;;;-7.72;44.32
59829;BME280;45708;51.848;107.620;2023-04-20T16:24:07;95683.00;;;-7.57;43.79
59829;BME280;45708;51.848;107.620;2023-04-20T16:29:08;95683.06;;;-7.44;43.73
59829;BME280;45708;51.848;107.620;2023-04-20T16:34:09;95696.47;;;-7.53;43.87
59829;BME280;45708;51.848;107.620;2023-04-20T16:39:09;95711.22;;;-7.71;45.79
59829;BME280;45708;51.848;107.620;2023-04-20T16:44:10;95704.09;;;-7.94;45.16
59829;BME280;45708;51.848;107.620;2023-04-20T16:49:11;95719.00;;;-8.01;47.10
59829;BME280;45708;51.848;107.620;2023-04-20T16:54:12;95714.13;;;-8.48;48.66
59829;BME280;45708;51.848;107.620;2023-04-20T16:59:13;95716.19;;;-8.69;49.15
59829;BME280;45708;51.848;107.620;2023-04-20T17:04:14;95720.50;;;-8.70;49.86
59829;BME280;45708;51.848;107.620;2023-04-20T17:09:15;95708.06;;;-8.62;48.51
59829;BME280;45708;51.848;107.620;2023-04-20T17:14:15;95717.44;;;-8.46;47.03
59829;BME280;45708;51.848;107.620;2023-04-20T17:19:16;95712.22;;;-8.31;46.47
59829;BME280;45708;51.848;107.620;2023-04-20T17:24:17;95700.06;;;-8.27;46.14
59829;BME280;45708;51.848;107.620;2023-04-20T17:29:18;95708.28;;;-8.22;46.27
59829;BME280;45708;51.848;107.620;2023-04-20T17:34:18;95707.38;;;-8.49;49.75
59829;BME280;45708;51.848;107.620;2023-04-20T17:39:19;95696.84;;;-8.59;48.85
59829;BME280;45708;51.848;107.620;2023-04-20T17:44:20;95707.72;;;-8.55;48.28
59829;BME280;45708;51.848;107.620;2023-04-20T17:49:21;95689.94;;;-8.73;46.92
59829;BME280;45708;51.848;107.620;2023-04-20T17:54:22;95691.16;;;-8.94;48.18
59829;BME280;45708;51.848;107.620;2023-04-20T17:59:23;95707.88;;;-9.18;48.47
59829;BME280;45708;51.848;107.620;2023-04-20T18:04:23;95667.56;;;-9.76;50.50
59829;BME280;45708;51.848;107.620;2023-04-20T18:09:24;95708.22;;;-9.56;48.63
59829;BME280;45708;51.848;107.620;2023-04-20T18:14:25;95727.22;;;-9.60;49.77
59829;BME280;45708;51.848;107.620;2023-04-20T18:19:26;95719.25;;;-9.71;49.77
59829;BME280;45708;51.848;107.620;2023-04-20T18:24:27;95718.41;;;-9.88;50.88
59829;BME280;45708;51.848;107.620;2023-04-20T18:29:28;95725.75;;;-9.82;49.93
59829;BME280;45708;51.848;107.620;2023-04-20T18:34:29;95711.03;;;-9.76;50.21
59829;BME280;45708;51.848;107.620;2023-04-20T18:39:30;95724.88;;;-9.65;48.95
59829;BME280;45708;51.848;107.620;2023-04-20T18:44:30;95710.28;;;-9.78;50.05
59829;BME280;45708;51.848;107.620;2023-04-20T18:49:31;95715.06;;;-9.72;49.77
59829;BME280;45708;51.848;107.620;2023-04-20T18:54:32;95728.84;;;-9.59;48.43
59829;BME280;45708;51.848;107.620;2023-04-20T18:59:33;95701.78;;;-9.63;49.34
59829;BME280;45708;51.848;107.620;2023-04-20T19:04:33;95721.66;;;-9.53;48.38
59829;BME280;45708;51.848;107.620;2023-04-20T19:09:34;95718.38;;;-9.55;48.90
59829;BME280;45708;51.848;107.620;2023-04-20T19:14:35;95723.56;;;-9.56;49.10
59829;BME280;45708;51.848;107.620;2023-04-20T19:19:36;95726.44;;;-9.62;48.56
59829;BME280;45708;51.848;107.620;2023-04-20T19:24:37;95733.88;;;-9.73;48.95
59829;BME280;45708;51.848;107.620;2023-04-20T19:29:37;95734.25;;;-9.81;50.16
59829;BME280;45708;51.848;107.620;2023-04-20T19:34:38;95732.88;;;-10.04;49.99
59829;BME280;45708;51.848;107.620;2023-04-20T19:39:39;95740.28;;;-10.15;51.20
59829;BME280;45708;51.848;107.620;2023-04-20T19:44:40;95741.59;;;-10.24;50.30
59829;BME280;45708;51.848;107.620;2023-04-20T19:49:40;95742.41;;;-10.23;51.13
59829;BME280;45708;51.848;107.620;2023-04-20T19:54:41;95737.91;;;-10.18;50.97
59829;BME280;45708;51.848;107.620;2023-04-20T19:59:42;95723.47;;;-10.19;50.45
59829;BME280;45708;51.848;107.620;2023-04-20T20:04:43;95727.09;;;-10.23;49.82
59829;BME280;45708;51.848;107.620;2023-04-20T20:10:03;95727.09;;;-10.23;50.61
59829;BME280;45708;51.848;107.620;2023-04-20T20:15:04;95734.19;;;-10.13;50.63
59829;BME280;45708;51.848;107.620;2023-04-20T20:20:05;95739.81;;;-10.06;49.58
59829;BME280;45708;51.848;107.620;2023-04-20T20:25:06;95747.91;;;-9.98;49.62
59829;BME280;45708;51.848;107.620;2023-04-20T20:30:08;95765.66;;;-9.95;48.85
59829;BME280;45708;51.848;107.620;2023-04-20T20:35:09;95763.09;;;-9.95;50.13
59829;BME280;45708;51.848;107.620;2023-04-20T20:40:10;95766.41;;;-9.93;49.72
59829;BME280;45708;51.848;107.620;2023-04-20T20:45:13;95771.00;;;-9.99;48.27
59829;BME280;45708;51.848;107.620;2023-04-20T20:50:14;95778.88;;;-10.04;49.54
59829;BME280;45708;51.848;107.620;2023-04-20T20:55:16;95767.91;;;-10.06;49.08
59829;BME280;45708;51.848;107.620;2023-04-20T21:00:16;95767.16;;;-10.08;49.06
59829;BME280;45708;51.848;107.620;2023-04-20T21:05:17;95758.06;;;-10.29;50.82
59829;BME280;45708;51.848;107.620;2023-04-20T21:10:18;95769.03;;;-10.27;49.39
59829;BME280;45708;51.848;107.620;2023-04-20T21:15:19;95753.50;;;-10.57;50.80
59829;BME280;45708;51.848;107.620;2023-04-20T21:20:20;95782.03;;;-10.49;51.17
59829;BME280;45708;51.848;107.620;2023-04-20T21:25:21;95762.75;;;-10.55;50.89
59829;BME280;45708;51.848;107.620;2023-04-20T21:30:22;95791.56;;;-10.53;51.41
59829;BME280;45708;51.848;107.620;2023-04-20T21:35:22;95793.13;;;-10.67;51.13
59829;BME280;45708;51.848;107.620;2023-04-20T21:40:23;95794.84;;;-10.85;53.14
59829;BME280;45708;51.848;107.620;2023-04-20T21:45:24;95786.88;;;-10.96;52.25
59829;BME280;45708;51.848;107.620;2023-04-20T21:50:25;95805.63;;;-10.97;52.41
59829;BME280;45708;51.848;107.620;2023-04-20T21:55:26;95792.91;;;-10.80;51.59
59829;BME280;45708;51.848;107.620;2023-04-20T22:00:26;95805.41;;;-10.57;51.18
59829;BME280;45708;51.848;107.620;2023-04-20T22:05:27;95805.03;;;-10.32;49.84
59829;BME280;45708;51.848;107.620;2023-04-20T22:10:28;95812.25;;;-10.40;51.98
59829;BME280;45708;51.848;107.620;2023-04-20T22:15:29;95811.53;;;-10.78;53.27
59829;BME280;45708;51.848;107.620;2023-04-20T22:20:30;95812.06;;;-10.71;54.02
59829;BME280;45708;51.848;107.620;2023-04-20T22:25:31;95816.66;;;-10.44;54.13
59829;BME280;45708;51.848;107.620;2023-04-20T22:30:32;95826.63;;;-9.71;52.04
59829;BME280;45708;51.848;107.620;2023-04-20T22:35:33;95831.31;;;-8.36;52.70
59829;BME280;45708;51.848;107.620;2023-04-20T22:40:34;95827.72;;;-6.90;47.47
59829;BME280;45708;51.848;107.620;2023-04-20T22:45:35;95830.19;;;-5.82;46.26
59829;BME280;45708;51.848;107.620;2023-04-20T22:50:35;95813.09;;;-4.70;44.04
59829;BME280;45708;51.848;107.620;2023-04-20T22:55:36;95835.56;;;-4.72;41.92
59829;BME280;45708;51.848;107.620;2023-04-20T23:00:37;95836.31;;;-6.50;43.20
59829;BME280;45708;51.848;107.620;2023-04-20T23:05:38;95837.84;;;-7.44;46.17
59829;BME280;45708;51.848;107.620;2023-04-20T23:10:39;95860.38;;;-6.78;47.27
59829;BME280;45708;51.848;107.620;2023-04-20T23:15:39;95862.88;;;-5.19;43.70
59829;BME280;45708;51.848;107.620;2023-04-20T23:20:40;95846.41;;;-3.95;43.19
59829;BME280;45708;51.848;107.620;2023-04-20T23:25:41;95860.84;;;-1.92;39.19
59829;BME280;45708;51.848;107.620;2023-04-20T23:30:42;95853.16;;;-1.19;37.13
59829;BME280;45708;51.848;107.620;2023-04-20T23:35:42;95863.19;;;-0.75;37.22
59829;BME280;45708;51.848;107.620;2023-04-20T23:40:43;95861.38;;;-1.14;36.07
59829;BME280;45708;51.848;107.620;2023-04-20T23:45:44;95866.06;;;-0.78;36.79
59829;BME280;45708;51.848;107.620;2023-04-20T23:50:47;95864.91;;;-0.54;34.59
59829;BME280;45708;51.848;107.620;2023-04-20T23:55:48;95871.91;;;0.24;34.18
